createdAt,value
2018-03-19T00:00:14.065Z,27.30
2018-03-19T00:02:44.100Z,27.30
2018-03-19T00:05:14.233Z,27.30
2018-03-19T00:07:44.444Z,27.40
2018-03-19T00:10:14.683Z,27.40
2018-03-19T00:12:45.749Z,27.40
2018-03-19T00:15:16.414Z,27.50
2018-03-19T00:17:46.969Z,27.50
2018-03-19T00:20:16.973Z,27.50
2018-03-19T00:22:47.255Z,27.50
2018-03-19T00:25:18.987Z,27.60
2018-03-19T00:27:49.004Z,27.60
2018-03-19T00:30:19.186Z,27.60
2018-03-19T00:32:49.634Z,27.60
2018-03-19T00:35:20.788Z,27.60
2018-03-19T00:37:51.717Z,27.60
2018-03-19T00:40:22.218Z,27.60
2018-03-19T00:42:52.401Z,27.60
2018-03-19T00:45:23.648Z,27.70
2018-03-19T00:47:54.278Z,27.70
2018-03-19T00:50:25.459Z,27.70
2018-03-19T00:52:55.168Z,27.70
2018-03-19T00:55:25.523Z,27.70
2018-03-19T00:57:55.858Z,27.80
2018-03-19T01:00:26.252Z,27.80
2018-03-19T01:02:56.456Z,27.80
2018-03-19T01:05:26.689Z,27.90
2018-03-19T01:07:56.971Z,27.90
2018-03-19T01:10:28.004Z,27.90
2018-03-19T01:12:58.397Z,27.90
2018-03-19T01:15:28.523Z,27.90
2018-03-19T01:17:58.879Z,28.00
2018-03-19T01:20:29.145Z,28.00
2018-03-19T01:22:59.286Z,28.10
2018-03-19T01:25:29.589Z,28.10
2018-03-19T01:27:59.753Z,28.20
2018-03-19T01:30:29.860Z,28.20
2018-03-19T01:32:59.987Z,28.20
2018-03-19T01:35:35.231Z,28.20
2018-03-19T01:38:05.656Z,28.20
2018-03-19T01:40:37.414Z,28.20
2018-03-19T01:43:07.461Z,28.20
2018-03-19T01:45:37.843Z,28.30
2018-03-19T01:48:07.887Z,28.30
2018-03-19T01:50:39.386Z,28.30
2018-03-19T01:53:09.236Z,28.30
2018-03-19T01:55:39.403Z,28.40
2018-03-19T01:58:10.508Z,28.40
2018-03-19T02:00:41.227Z,28.40
2018-03-19T02:03:10.959Z,28.50
2018-03-19T02:05:41.230Z,28.50
2018-03-19T02:08:11.535Z,28.50
2018-03-19T02:10:41.342Z,28.60
2018-03-19T02:13:12.768Z,28.40
2018-03-19T02:15:43.226Z,28.00
2018-03-19T02:18:13.423Z,28.00
2018-03-19T02:20:44.416Z,27.70
2018-03-19T02:23:14.533Z,27.70
2018-03-19T02:25:44.961Z,27.80
2018-03-19T02:28:15.337Z,27.90
2018-03-19T02:30:46.663Z,28.10
2018-03-19T02:33:16.706Z,28.10
2018-03-19T02:35:47.862Z,28.20
2018-03-19T02:38:18.148Z,28.20
2018-03-19T02:40:47.951Z,28.30
2018-03-19T02:43:18.310Z,28.30
2018-03-19T02:45:48.884Z,28.30
2018-03-19T02:48:18.596Z,28.30
2018-03-19T02:50:48.276Z,28.40
2018-03-19T02:53:18.783Z,28.40
2018-03-19T02:55:49.567Z,28.40
2018-03-19T02:58:19.817Z,28.40
2018-03-19T03:00:49.546Z,28.40
2018-03-19T03:03:19.736Z,28.50
2018-03-19T03:05:50.040Z,28.50
2018-03-19T03:08:20.080Z,28.50
2018-03-19T03:10:50.882Z,28.50
2018-03-19T03:13:21.128Z,28.60
2018-03-19T03:15:50.961Z,28.60
2018-03-19T03:18:20.867Z,28.60
2018-03-19T03:20:51.002Z,28.60
2018-03-19T03:23:20.725Z,28.60
2018-03-19T03:25:51.816Z,28.70
2018-03-19T03:28:22.120Z,28.70
2018-03-19T03:30:52.484Z,28.70
2018-03-19T03:33:22.723Z,28.70
2018-03-19T03:35:53.421Z,28.80
2018-03-19T03:38:23.662Z,28.80
2018-03-19T03:40:53.880Z,28.90
2018-03-19T03:43:24.114Z,28.90
2018-03-19T03:45:54.326Z,28.90
2018-03-19T03:48:24.663Z,28.90
2018-03-19T03:50:54.401Z,29.00
2018-03-19T03:53:24.896Z,29.00
2018-03-19T03:55:55.666Z,29.00
2018-03-19T03:58:26.796Z,29.10
2018-03-19T04:00:57.906Z,29.10
2018-03-19T04:03:27.598Z,29.10
2018-03-19T04:05:57.331Z,29.10
2018-03-19T04:08:27.117Z,29.10
2018-03-19T04:10:57.262Z,29.20
2018-03-19T04:13:27.532Z,29.20
2018-03-19T04:15:58.037Z,29.30
2018-03-19T04:18:29.285Z,29.30
2018-03-19T04:20:59.001Z,29.30
2018-03-19T04:23:30.121Z,29.40
2018-03-19T04:25:59.788Z,29.40
2018-03-19T04:28:30.102Z,29.40
2018-03-19T04:30:59.940Z,29.40
2018-03-19T04:33:29.683Z,29.40
2018-03-19T04:35:59.432Z,29.50
2018-03-19T04:38:31.854Z,29.50
2018-03-19T04:41:02.465Z,29.50
2018-03-19T04:43:34.375Z,29.50
2018-03-19T04:46:04.878Z,29.50
2018-03-19T04:48:34.586Z,29.60
2018-03-19T04:51:04.291Z,29.60
2018-03-19T04:53:34.095Z,29.60
2018-03-19T04:56:03.993Z,29.60
2018-03-19T04:58:34.008Z,29.70
2018-03-19T05:01:04.289Z,29.70
2018-03-19T05:03:34.510Z,29.70
2018-03-19T05:06:05.533Z,29.80
2018-03-19T05:08:35.365Z,29.80
2018-03-19T05:11:05.866Z,29.80
2018-03-19T05:13:35.914Z,29.80
2018-03-19T05:16:06.352Z,29.80
2018-03-19T05:18:36.805Z,29.80
2018-03-19T05:21:06.556Z,29.80
2018-03-19T05:23:36.271Z,29.80
2018-03-19T05:26:06.202Z,29.80
2018-03-19T05:28:36.973Z,29.90
2018-03-19T05:31:06.734Z,29.90
2018-03-19T05:33:36.947Z,29.90
2018-03-19T05:36:07.092Z,29.90
2018-03-19T05:38:37.988Z,29.90
2018-03-19T05:41:07.818Z,29.90
2018-03-19T05:43:37.947Z,30.00
2018-03-19T05:46:07.915Z,30.00
2018-03-19T05:48:38.088Z,30.00
2018-03-19T05:51:08.282Z,30.00
2018-03-19T05:53:38.635Z,30.00
2018-03-19T05:56:08.889Z,30.00
2018-03-19T05:58:39.173Z,30.00
2018-03-19T06:01:09.313Z,30.10
2018-03-19T06:03:41.079Z,30.10
2018-03-19T06:06:12.010Z,30.10
2018-03-19T06:08:41.750Z,30.10
2018-03-19T06:11:12.319Z,30.10
2018-03-19T06:13:41.970Z,30.10
2018-03-19T06:16:11.738Z,30.10
2018-03-19T06:18:41.467Z,30.20
2018-03-19T06:21:11.959Z,30.20
2018-03-19T06:23:41.781Z,30.20
2018-03-19T06:26:11.520Z,30.20
2018-03-19T06:28:41.742Z,30.20
2018-03-19T06:31:12.077Z,30.20
2018-03-19T06:33:42.804Z,30.20
2018-03-19T06:36:12.682Z,30.30
2018-03-19T06:38:43.491Z,30.30
2018-03-19T06:41:13.187Z,30.30
2018-03-19T06:43:43.778Z,30.30
2018-03-19T06:46:13.427Z,30.30
2018-03-19T06:48:43.691Z,30.30
2018-03-19T06:51:13.502Z,30.30
2018-03-19T06:53:45.055Z,30.30
2018-03-19T06:56:14.812Z,30.30
2018-03-19T06:58:45.239Z,30.30
2018-03-19T07:01:15.778Z,30.30
2018-03-19T07:03:45.474Z,30.40
2018-03-19T07:06:15.979Z,30.40
2018-03-19T07:08:46.516Z,30.40
2018-03-19T07:11:16.360Z,30.40
2018-03-19T07:13:46.071Z,30.40
2018-03-19T07:16:15.832Z,30.40
2018-03-19T07:18:45.856Z,30.40
2018-03-19T07:21:16.268Z,30.40
2018-03-19T07:23:47.008Z,30.50
2018-03-19T07:26:16.811Z,30.50
2018-03-19T07:28:46.583Z,30.40
2018-03-19T07:31:16.851Z,30.50
2018-03-19T07:33:47.123Z,30.50
2018-03-19T07:36:17.713Z,30.50
2018-03-19T07:38:47.531Z,30.60
2018-03-19T07:41:17.615Z,30.60
2018-03-19T07:43:49.137Z,30.60
2018-03-19T07:46:19.648Z,30.60
2018-03-19T07:48:50.253Z,30.60
2018-03-19T07:51:19.986Z,30.60
2018-03-19T07:53:51.878Z,30.60
2018-03-19T07:56:22.512Z,30.60
2018-03-19T07:58:53.027Z,30.60
2018-03-19T08:01:23.793Z,30.60
2018-03-19T08:03:53.527Z,30.60
2018-03-19T08:06:23.274Z,30.60
2018-03-19T08:08:53.775Z,30.60
2018-03-19T08:11:23.476Z,30.60
2018-03-19T08:13:53.433Z,30.60
2018-03-19T08:16:23.925Z,30.60
2018-03-19T08:18:53.869Z,30.60
2018-03-19T08:21:24.396Z,30.60
2018-03-19T08:23:54.967Z,30.60
2018-03-19T08:26:24.867Z,30.60
2018-03-19T08:28:54.593Z,30.60
2018-03-19T08:31:24.366Z,30.60
2018-03-19T08:33:54.097Z,30.60
2018-03-19T08:36:23.871Z,30.60
2018-03-19T08:38:53.670Z,30.60
2018-03-19T08:41:23.448Z,30.60
2018-03-19T08:43:53.204Z,30.60
2018-03-19T08:46:23.549Z,30.60
2018-03-19T08:48:54.304Z,30.60
2018-03-19T08:51:24.650Z,30.60
2018-03-19T08:53:54.426Z,30.60
2018-03-19T08:56:24.440Z,30.60
2018-03-19T08:58:54.740Z,30.60
2018-03-19T09:01:24.825Z,30.60
2018-03-19T09:03:54.974Z,30.60
2018-03-19T09:06:25.411Z,30.70
2018-03-19T09:08:55.518Z,30.70
2018-03-19T09:11:26.320Z,30.70
2018-03-19T09:13:56.173Z,30.70
2018-03-19T09:16:26.721Z,30.70
2018-03-19T09:18:56.645Z,30.70
2018-03-19T09:21:31.813Z,30.80
2018-03-19T09:24:03.021Z,30.80
2018-03-19T09:26:33.915Z,30.60
2018-03-19T09:29:03.847Z,30.60
2018-03-19T09:31:33.698Z,30.60
2018-03-19T09:34:03.485Z,30.60
2018-03-19T09:36:34.228Z,30.60
2018-03-19T09:39:04.025Z,30.60
2018-03-19T09:41:33.838Z,30.60
2018-03-19T09:44:04.435Z,30.70
2018-03-19T09:46:34.230Z,30.70
2018-03-19T09:49:03.994Z,30.70
2018-03-19T09:51:34.518Z,30.70
2018-03-19T09:54:04.338Z,30.70
2018-03-19T09:56:34.798Z,30.80
2018-03-19T09:59:05.946Z,30.80
2018-03-19T10:01:36.287Z,30.80
2018-03-19T10:04:06.172Z,30.80
2018-03-19T10:06:36.978Z,30.80
2018-03-19T10:09:07.542Z,30.70
2018-03-19T10:11:37.332Z,30.70
2018-03-19T10:14:07.096Z,30.70
2018-03-19T10:16:36.958Z,30.70
2018-03-19T10:19:10.780Z,30.70
2018-03-19T10:21:42.756Z,30.70
2018-03-19T10:24:13.517Z,30.70
2018-03-19T10:26:43.724Z,30.70
2018-03-19T10:29:14.740Z,30.70
2018-03-19T10:31:45.233Z,30.70
2018-03-19T10:34:15.056Z,30.70
2018-03-19T10:36:45.184Z,30.70
2018-03-19T10:39:15.114Z,30.70
2018-03-19T10:41:48.767Z,30.70
2018-03-19T10:44:18.749Z,30.70
2018-03-19T10:46:50.840Z,30.60
2018-03-19T10:49:22.215Z,30.60
2018-03-19T10:51:52.247Z,30.70
2018-03-19T10:54:23.055Z,30.70
2018-03-19T10:56:52.886Z,30.60
2018-03-19T10:59:23.447Z,30.60
2018-03-19T11:01:58.385Z,30.60
2018-03-19T11:04:28.450Z,30.60
2018-03-19T11:07:03.597Z,30.60
2018-03-19T11:09:34.721Z,30.60
2018-03-19T11:12:04.559Z,30.60
2018-03-19T11:14:34.476Z,30.60
2018-03-19T11:17:06.016Z,30.60
2018-03-19T11:19:37.167Z,30.60
2018-03-19T11:22:06.973Z,30.60
2018-03-19T11:24:36.895Z,30.60
2018-03-19T11:27:08.348Z,30.60
2018-03-19T11:29:40.738Z,30.60
2018-03-19T11:32:10.611Z,30.60
2018-03-19T11:34:40.385Z,30.60
2018-03-19T11:37:10.114Z,30.60
2018-03-19T11:39:39.961Z,30.60
2018-03-19T11:42:10.478Z,30.60
2018-03-19T11:44:40.308Z,30.60
2018-03-19T11:47:12.028Z,30.60
2018-03-19T11:49:41.971Z,30.60
2018-03-19T11:52:12.478Z,30.60
2018-03-19T11:54:42.269Z,30.60
2018-03-19T11:57:12.028Z,30.60
2018-03-19T11:59:42.610Z,30.60
2018-03-19T12:02:12.469Z,30.60
2018-03-19T12:04:42.320Z,30.60
2018-03-19T12:07:13.252Z,30.60
2018-03-19T12:09:43.040Z,30.60
2018-03-19T12:12:13.561Z,30.60
2018-03-19T12:14:44.119Z,30.60
2018-03-19T12:17:13.890Z,30.50
2018-03-19T12:19:43.816Z,30.50
2018-03-19T12:22:14.392Z,30.50
2018-03-19T12:24:45.183Z,30.40
2018-03-19T12:27:15.746Z,30.50
2018-03-19T12:29:45.875Z,30.50
2018-03-19T12:32:15.744Z,30.50
2018-03-19T12:34:45.533Z,30.50
2018-03-19T12:37:16.422Z,30.50
2018-03-19T12:39:47.001Z,30.50
2018-03-19T12:42:16.743Z,30.50
2018-03-19T12:44:47.686Z,30.50
2018-03-19T12:47:17.853Z,30.50
2018-03-19T12:49:47.783Z,30.50
2018-03-19T12:52:17.598Z,30.50
2018-03-19T12:54:48.089Z,30.50
2018-03-19T12:57:17.915Z,30.50
2018-03-19T12:59:49.078Z,30.40
2018-03-19T13:02:19.180Z,30.40
2018-03-19T13:04:49.350Z,30.40
2018-03-19T13:07:19.970Z,30.40
2018-03-19T13:09:50.914Z,30.40
2018-03-19T13:12:20.693Z,30.50
2018-03-19T13:14:51.875Z,30.40
2018-03-19T13:17:23.319Z,30.40
2018-03-19T13:19:55.412Z,30.40
2018-03-19T13:22:25.165Z,30.40
2018-03-19T13:24:55.160Z,30.40
2018-03-19T13:27:25.003Z,30.40
2018-03-19T13:29:55.456Z,30.40
2018-03-19T13:32:25.994Z,30.40
2018-03-19T13:34:56.870Z,30.40
2018-03-19T13:37:26.837Z,30.40
2018-03-19T13:39:57.411Z,30.40
2018-03-19T13:42:28.097Z,30.40
2018-03-19T13:44:58.098Z,30.40
2018-03-19T13:47:27.878Z,30.40
2018-03-19T13:49:57.640Z,30.40
2018-03-19T13:52:29.166Z,30.40
2018-03-19T13:55:00.026Z,30.40
2018-03-19T13:57:30.281Z,30.40
2018-03-19T14:00:01.345Z,30.30
2018-03-19T14:02:31.178Z,30.30
2018-03-19T14:05:00.988Z,30.30
2018-03-19T14:07:31.129Z,30.30
2018-03-19T14:10:01.266Z,30.30
2018-03-19T14:12:31.461Z,30.30
2018-03-19T14:15:01.684Z,30.30
2018-03-19T14:17:33.012Z,30.30
2018-03-19T14:20:05.110Z,30.30
2018-03-19T14:22:35.233Z,30.30
2018-03-19T14:25:05.744Z,30.30
2018-03-19T14:27:35.710Z,30.30
2018-03-19T14:30:06.649Z,30.30
2018-03-19T14:32:36.499Z,30.30
2018-03-19T14:35:06.283Z,30.30
2018-03-19T14:37:36.151Z,30.30
2018-03-19T14:40:06.714Z,30.20
2018-03-19T14:42:36.824Z,30.20
2018-03-19T14:45:06.806Z,30.20
2018-03-19T14:47:37.839Z,30.20
2018-03-19T14:50:11.311Z,30.20
2018-03-19T14:52:42.607Z,30.30
2018-03-19T14:55:13.844Z,30.30
2018-03-19T14:57:44.972Z,30.30
2018-03-19T15:00:16.370Z,30.30
2018-03-19T15:02:46.143Z,30.30
2018-03-19T15:05:17.683Z,30.20
2018-03-19T15:07:47.551Z,30.20
2018-03-19T15:10:17.793Z,30.20
2018-03-19T15:12:48.811Z,30.20
2018-03-19T15:15:18.982Z,30.20
2018-03-19T15:17:49.562Z,30.30
2018-03-19T15:20:20.498Z,30.30
2018-03-19T15:22:50.342Z,30.30
2018-03-19T15:25:20.715Z,30.30
2018-03-19T15:27:50.513Z,30.30
2018-03-19T15:30:21.022Z,30.30
2018-03-19T15:32:50.748Z,30.30
2018-03-19T15:35:20.483Z,30.30
2018-03-19T15:37:51.015Z,30.30
2018-03-19T15:40:21.517Z,30.30
2018-03-19T15:42:51.721Z,30.30
2018-03-19T15:45:21.447Z,30.20
2018-03-19T15:47:51.582Z,30.20
2018-03-19T15:50:22.487Z,30.20
2018-03-19T15:52:52.253Z,30.20
2018-03-19T15:55:23.176Z,30.20
2018-03-19T15:57:52.980Z,30.10
2018-03-19T16:00:23.849Z,29.50
2018-03-19T16:02:54.807Z,29.50
2018-03-19T16:05:25.408Z,28.90
2018-03-19T16:07:55.157Z,28.50
2018-03-19T16:10:26.182Z,27.80
2018-03-19T16:12:56.323Z,27.80
2018-03-19T16:15:26.822Z,27.50
2018-03-19T16:17:57.090Z,27.20
2018-03-19T16:20:27.550Z,26.90
2018-03-19T16:22:58.068Z,26.60
2018-03-19T16:25:29.250Z,26.30
2018-03-19T16:27:59.391Z,26.40
2018-03-19T16:30:29.796Z,26.20
2018-03-19T16:33:00.096Z,26.10
2018-03-19T16:35:29.995Z,26.00
2018-03-19T16:38:01.991Z,25.70
2018-03-19T16:40:32.215Z,25.70
2018-03-19T16:43:02.380Z,25.60
2018-03-19T16:45:32.648Z,25.50
2018-03-19T16:48:02.763Z,25.40
2018-03-19T16:50:33.980Z,25.40
2018-03-19T16:53:05.895Z,25.20
2018-03-19T16:55:36.035Z,25.30
2018-03-19T16:58:06.189Z,25.20
2018-03-19T17:00:37.826Z,25.10
2018-03-19T17:03:08.130Z,25.00
2018-03-19T17:05:38.438Z,25.10
2018-03-19T17:08:08.681Z,25.00
2018-03-19T17:10:39.001Z,24.90
2018-03-19T17:13:09.405Z,24.80
2018-03-19T17:15:39.654Z,24.80
2018-03-19T17:18:09.454Z,24.70
2018-03-19T17:20:39.513Z,24.60
2018-03-19T17:23:10.632Z,24.50
2018-03-19T17:25:40.859Z,24.50
2018-03-19T17:28:11.077Z,24.60
2018-03-19T17:30:41.607Z,25.10
2018-03-19T17:33:12.133Z,25.80
2018-03-19T17:35:42.350Z,26.40
2018-03-19T17:38:12.480Z,26.00
2018-03-19T17:40:42.622Z,25.40
2018-03-19T17:43:13.550Z,25.30
2018-03-19T17:45:43.786Z,25.30
2018-03-19T17:48:14.711Z,25.90
2018-03-19T17:50:44.823Z,26.40
2018-03-19T17:53:14.825Z,26.00
2018-03-19T17:55:45.463Z,25.20
2018-03-19T17:58:15.551Z,25.20
2018-03-19T18:00:45.631Z,24.90
2018-03-19T18:03:16.549Z,25.80
2018-03-19T18:05:46.748Z,25.80
2018-03-19T18:08:16.999Z,26.30
2018-03-19T18:10:47.260Z,26.00
2018-03-19T18:13:17.533Z,25.40
2018-03-19T18:15:47.821Z,25.00
2018-03-19T18:18:18.286Z,25.20
2018-03-19T18:20:48.190Z,25.70
2018-03-19T18:23:18.625Z,26.20
2018-03-19T18:25:49.456Z,26.10
2018-03-19T18:28:21.326Z,25.50
2018-03-19T18:30:51.313Z,25.70
2018-03-19T18:33:21.850Z,26.10
2018-03-19T18:35:52.083Z,26.40
2018-03-19T18:38:22.310Z,26.00
2018-03-19T18:40:53.897Z,25.50
2018-03-19T18:43:24.626Z,26.00
2018-03-19T18:45:55.798Z,26.40
2018-03-19T18:48:26.157Z,26.40
2018-03-19T18:50:58.106Z,26.00
2018-03-19T18:53:28.523Z,25.50
2018-03-19T18:55:58.960Z,25.50
2018-03-19T18:58:29.197Z,26.00
2018-03-19T19:00:59.334Z,26.40
2018-03-19T19:03:29.734Z,26.10
2018-03-19T19:06:00.078Z,25.60
2018-03-19T19:08:30.283Z,25.40
2018-03-19T19:11:00.307Z,25.80
2018-03-19T19:13:30.690Z,26.20
2018-03-19T19:16:01.157Z,26.10
2018-03-19T19:18:31.378Z,25.60
2018-03-19T19:21:01.085Z,25.40
2018-03-19T19:23:31.519Z,25.80
2018-03-19T19:26:02.048Z,26.20
2018-03-19T19:28:32.371Z,26.10
2018-03-19T19:31:02.981Z,25.70
2018-03-19T19:33:33.413Z,25.90
2018-03-19T19:36:03.675Z,26.20
2018-03-19T19:38:34.594Z,25.80
2018-03-19T19:41:04.737Z,25.80
2018-03-19T19:43:35.942Z,26.20
2018-03-19T19:46:05.988Z,26.20
2018-03-19T19:48:36.148Z,26.40
2018-03-19T19:51:06.426Z,25.90
2018-03-19T19:53:36.351Z,25.90
2018-03-19T19:56:06.551Z,26.10
2018-03-19T19:58:36.852Z,26.40
2018-03-19T20:01:07.104Z,26.10
2018-03-19T20:03:37.217Z,25.70
2018-03-19T20:06:09.503Z,26.40
2018-03-19T20:08:39.978Z,26.40
2018-03-19T20:11:10.947Z,26.30
2018-03-19T20:13:42.045Z,26.00
2018-03-19T20:16:12.560Z,26.30
2018-03-19T20:18:43.570Z,26.50
2018-03-19T20:21:13.889Z,26.50
2018-03-19T20:23:44.280Z,25.90
2018-03-19T20:26:15.744Z,26.00
2018-03-19T20:28:46.000Z,26.30
2018-03-19T20:31:15.735Z,26.50
2018-03-19T20:33:46.737Z,25.80
2018-03-19T20:36:17.675Z,26.10
2018-03-19T20:38:48.182Z,26.00
2018-03-19T20:41:17.944Z,26.50
2018-03-19T20:43:48.689Z,25.80
2018-03-19T20:46:19.779Z,26.00
2018-03-19T20:48:49.639Z,26.00
2018-03-19T20:51:20.585Z,26.30
2018-03-19T20:53:51.391Z,25.70
2018-03-19T20:56:21.600Z,25.70
2018-03-19T20:58:51.563Z,25.80
2018-03-19T21:01:22.470Z,26.40
2018-03-19T21:03:52.299Z,26.40
2018-03-19T21:06:23.784Z,25.90
2018-03-19T21:08:54.023Z,25.90
2018-03-19T21:11:24.156Z,26.20
2018-03-19T21:13:54.273Z,26.40
2018-03-19T21:16:24.246Z,25.90
2018-03-19T21:18:54.613Z,25.80
2018-03-19T21:21:24.851Z,26.20
2018-03-19T21:23:55.058Z,26.40
2018-03-19T21:26:25.210Z,26.00
2018-03-19T21:28:56.323Z,26.00
2018-03-19T21:31:28.230Z,26.40
2018-03-19T21:33:58.087Z,26.30
2018-03-19T21:36:28.084Z,26.10
2018-03-19T21:38:59.356Z,26.10
2018-03-19T21:41:29.512Z,26.00
2018-03-19T21:44:00.763Z,26.30
2018-03-19T21:46:31.588Z,25.80
2018-03-19T21:49:02.190Z,25.70
2018-03-19T21:51:32.321Z,25.90
2018-03-19T21:54:02.074Z,26.20
2018-03-19T21:56:33.182Z,25.80
2018-03-19T21:59:02.943Z,25.80
2018-03-19T22:01:33.153Z,26.00
2018-03-19T22:04:03.341Z,26.10
2018-03-19T22:06:33.651Z,26.30
2018-03-19T22:09:03.438Z,25.90
2018-03-19T22:11:33.677Z,26.20
2018-03-19T22:14:03.891Z,26.40
2018-03-19T22:16:34.246Z,26.60
2018-03-19T22:19:04.538Z,26.00
2018-03-19T22:21:34.744Z,25.50
2018-03-19T22:24:04.906Z,25.10
2018-03-19T22:26:35.001Z,25.60
2018-03-19T22:29:06.619Z,26.30
2018-03-19T22:31:37.533Z,25.70
2018-03-19T22:34:08.080Z,25.30
2018-03-19T22:36:37.893Z,25.20
2018-03-19T22:39:08.929Z,25.70
2018-03-19T22:41:39.923Z,26.00
2018-03-19T22:44:10.360Z,26.00
2018-03-19T22:46:40.684Z,25.90
2018-03-19T22:49:11.399Z,25.30
2018-03-19T22:51:41.822Z,25.00
2018-03-19T22:54:11.947Z,25.40
2018-03-19T22:56:42.358Z,25.80
2018-03-19T22:59:12.068Z,26.00
2018-03-19T23:01:43.776Z,25.20
2018-03-19T23:04:14.382Z,25.20
2018-03-19T23:06:44.144Z,25.50
2018-03-19T23:09:13.901Z,25.80
2018-03-19T23:11:43.604Z,26.00
2018-03-19T23:14:13.369Z,25.40
2018-03-19T23:16:43.194Z,25.00
2018-03-19T23:19:13.007Z,25.40
2018-03-19T23:21:42.793Z,25.80
2018-03-19T23:24:13.281Z,25.50
2018-03-19T23:26:43.548Z,25.50
2018-03-19T23:29:14.044Z,25.40
2018-03-19T23:31:43.896Z,25.40
2018-03-19T23:34:15.233Z,26.00
2018-03-19T23:36:46.910Z,26.30
2018-03-19T23:39:16.836Z,26.30
2018-03-19T23:41:46.686Z,26.40
2018-03-19T23:44:16.656Z,26.60
2018-03-19T23:46:46.586Z,26.70
2018-03-19T23:49:17.599Z,26.80
2018-03-19T23:51:50.110Z,26.90
2018-03-19T23:54:30.577Z,27.00
2018-03-19T23:57:01.996Z,26.90
2018-03-19T23:59:32.082Z,27.00
